createdAt,value
2023-02-24T00:02:01.237Z,4.02
2023-02-24T00:04:32.364Z,4.07
2023-02-24T00:07:00.954Z,4.14
2023-02-24T00:09:30.530Z,4.20
2023-02-24T00:12:01.212Z,4.26
2023-02-24T00:14:33.323Z,4.32
2023-02-24T00:17:01.533Z,4.38
2023-02-24T00:19:34.133Z,4.44
2023-02-24T00:22:04.447Z,4.50
2023-02-24T00:24:32.502Z,4.53
2023-02-24T00:27:02.676Z,4.56
2023-02-24T00:29:32.477Z,4.59
2023-02-24T00:32:01.176Z,4.61
2023-02-24T00:34:31.659Z,4.61
2023-02-24T00:36:59.743Z,4.62
2023-02-24T00:39:33.637Z,4.61
2023-02-24T00:42:05.997Z,4.60
2023-02-24T00:44:39.392Z,4.61
2023-02-24T00:47:09.019Z,4.61
2023-02-24T00:49:42.416Z,4.62
2023-02-24T00:52:17.223Z,4.63
2023-02-24T00:54:50.072Z,4.65
2023-02-24T00:57:19.929Z,4.68
2023-02-24T00:59:47.943Z,4.69
2023-02-24T01:02:16.605Z,4.72
2023-02-24T01:04:46.373Z,4.75
2023-02-24T01:07:14.858Z,4.78
2023-02-24T01:09:44.288Z,4.80
2023-02-24T01:12:22.610Z,4.83
2023-02-24T01:14:53.048Z,4.84
2023-02-24T01:17:21.712Z,4.85
2023-02-24T01:19:50.509Z,4.87
2023-02-24T01:22:20.970Z,4.88
2023-02-24T01:24:49.178Z,4.89
2023-02-24T01:27:19.377Z,4.91
2023-02-24T01:29:48.506Z,4.93
2023-02-24T01:32:20.616Z,4.95
2023-02-24T01:34:52.696Z,4.96
2023-02-24T01:37:21.616Z,4.98
2023-02-24T01:39:50.390Z,4.99
2023-02-24T01:42:21.514Z,5.01
2023-02-24T01:44:51.961Z,5.03
2023-02-24T01:47:21.429Z,5.05
2023-02-24T01:49:54.771Z,5.07
2023-02-24T01:52:27.481Z,5.09
2023-02-24T01:55:11.341Z,5.10
2023-02-24T01:57:39.806Z,5.12
2023-02-24T02:00:32.150Z,5.14
2023-02-24T02:03:05.124Z,5.16
2023-02-24T02:05:33.030Z,5.18
2023-02-24T02:08:02.003Z,5.20
2023-02-24T02:10:30.326Z,5.22
2023-02-24T02:12:58.221Z,5.25
2023-02-24T02:15:32.457Z,5.26
2023-02-24T02:18:18.097Z,5.28
2023-02-24T02:21:15.387Z,5.30
2023-02-24T02:24:13.612Z,5.32
2023-02-24T02:27:29.421Z,5.33
2023-02-24T02:29:59.829Z,5.35
2023-02-24T02:32:39.808Z,5.37
2023-02-24T02:35:19.256Z,5.38
2023-02-24T02:38:30.922Z,5.40
2023-02-24T02:41:29.110Z,5.43
2023-02-24T02:44:21.685Z,5.47
2023-02-24T02:46:59.456Z,5.51
2023-02-24T02:49:42.625Z,5.53
2023-02-24T02:52:18.449Z,5.57
2023-02-24T02:55:14.062Z,5.59
2023-02-24T02:57:49.250Z,5.61
2023-02-24T03:00:35.542Z,5.64
2023-02-24T03:03:12.684Z,5.65
2023-02-24T03:05:50.888Z,5.64
2023-02-24T03:08:26.064Z,5.65
2023-02-24T03:11:00.404Z,5.64
2023-02-24T03:13:32.928Z,5.64
2023-02-24T03:16:03.859Z,5.64
2023-02-24T03:18:40.532Z,5.63
2023-02-24T03:21:13.965Z,5.63
2023-02-24T03:23:50.212Z,5.61
2023-02-24T03:26:33.051Z,5.61
2023-02-24T03:29:04.884Z,5.59
2023-02-24T03:31:48.864Z,5.58
2023-02-24T03:34:29.100Z,5.57
2023-02-24T03:36:57.989Z,5.55
2023-02-24T03:39:26.389Z,5.54
2023-02-24T03:42:21.039Z,5.54
2023-02-24T03:44:49.286Z,5.53
2023-02-24T03:47:20.494Z,5.53
2023-02-24T03:49:50.360Z,5.51
2023-02-24T03:52:23.075Z,5.51
2023-02-24T03:54:54.543Z,5.51
2023-02-24T03:57:54.999Z,5.51
2023-02-24T04:05:20.754Z,5.51
2023-02-24T04:08:07.238Z,5.51
2023-02-24T04:10:53.992Z,5.51
2023-02-24T04:13:43.351Z,5.52
2023-02-24T04:16:36.572Z,5.53
2023-02-24T04:19:10.327Z,5.54
2023-02-24T04:21:40.153Z,5.54
2023-02-24T04:24:15.273Z,5.55
2023-02-24T04:26:46.674Z,5.54
2023-02-24T04:29:21.135Z,5.55
2023-02-24T04:34:40.849Z,5.55
2023-02-24T04:37:08.935Z,5.55
2023-02-24T04:39:38.633Z,5.57
2023-02-24T04:42:10.969Z,5.58
2023-02-24T04:44:38.790Z,5.57
2023-02-24T11:05:04.753Z,6.99
2023-02-24T19:04:37.647Z,3.65
2023-02-24T19:07:05.673Z,3.61
2023-02-24T19:09:33.608Z,3.56
2023-02-24T19:12:02.125Z,3.52
2023-02-24T19:14:31.638Z,3.48
2023-02-24T19:17:01.540Z,3.46
2023-02-24T19:19:29.740Z,3.44
2023-02-24T19:21:57.990Z,3.42
2023-02-24T19:24:26.393Z,3.40
